Time;durP1;ratioP1;P1;durP2;ratioP2;P2;SDS_P1;SDS_P2;PMS_P1;PMS_P2;Temp;Humidity;BMP_temperature;BMP_pressure;BME280_temperature;BME280_humidity;BME280_pressure;Samples;Min_cycle;Max_cycle;Signal;HPM_P1;HPM_P2
2023/07/23 00:01:21;;;;;;;57.08;36.97;;;;;;;22.90;48.29;93428.09;5063163;28;20106;-91
2023/07/23 00:03:47;;;;;;;58.83;38.00;;;;;;;22.91;48.38;93434.34;5029845;28;20080;-92
2023/07/23 00:06:13;;;;;;;54.47;36.83;;;;;;;22.92;48.44;93424.06;5015008;28;20048;-91
2023/07/23 00:08:38;;;;;;;60.03;38.85;;;;;;;22.90;48.26;93425.34;5026718;28;20067;-92
2023/07/23 00:11:04;;;;;;;62.38;40.38;;;;;;;22.91;48.20;93428.84;5035778;28;20072;-90
2023/07/23 00:13:29;;;;;;;56.65;37.22;;;;;;;22.89;48.64;93423.13;5028759;28;20382;-91
2023/07/23 00:15:54;;;;;;;52.50;35.50;;;;;;;22.89;47.87;93418.34;5049730;28;20064;-92
2023/07/23 00:18:21;;;;;;;64.00;40.72;;;;;;;22.91;48.34;93420.56;5036541;28;20053;-92
2023/07/23 00:20:46;;;;;;;61.40;38.53;;;;;;;22.88;48.38;93425.13;5036405;28;20075;-92
2023/07/23 00:23:12;;;;;;;56.90;36.78;;;;;;;22.89;48.54;93428.63;5045322;28;20037;-92
2023/07/23 00:25:37;;;;;;;58.70;40.63;;;;;;;22.90;48.37;93427.34;5030576;28;20207;-92
2023/07/23 00:28:03;;;;;;;53.42;36.17;;;;;;;22.89;48.41;93432.13;5034435;28;20037;-90
2023/07/23 00:30:28;;;;;;;59.00;34.30;;;;;;;22.89;48.53;93432.13;5012830;28;20037;-92
2023/07/23 00:32:54;;;;;;;57.72;37.08;;;;;;;22.88;48.53;93429.91;5033079;28;20045;-92
2023/07/23 00:35:20;;;;;;;54.25;37.05;;;;;;;22.89;48.33;93423.13;5064624;28;20036;-91
2023/07/23 00:37:45;;;;;;;53.63;36.05;;;;;;;22.88;48.42;93416.13;5035168;28;20041;-92
2023/07/23 00:40:11;;;;;;;58.08;37.08;;;;;;;22.87;48.34;93420.16;4996159;28;20053;-92
2023/07/23 00:42:37;;;;;;;51.55;36.28;;;;;;;22.86;48.52;93419.41;5008982;28;20128;-92
2023/07/23 00:45:02;;;;;;;48.65;35.28;;;;;;;22.86;48.72;93410.41;5031581;28;20036;-90
2023/07/23 00:47:28;;;;;;;52.13;34.92;;;;;;;22.86;48.52;93415.91;5030643;28;20563;-91
2023/07/23 00:49:53;;;;;;;58.90;35.40;;;;;;;22.86;48.28;93416.66;5020630;28;20044;-92
2023/07/23 00:52:19;;;;;;;55.17;34.70;;;;;;;22.88;48.33;93405.09;5015824;28;20037;-92
2023/07/23 00:54:45;;;;;;;49.97;34.03;;;;;;;22.86;48.52;93400.13;5016468;28;20041;-91
2023/07/23 00:57:11;;;;;;;47.65;33.47;;;;;;;22.85;48.21;93408.94;5047956;28;20057;-91
2023/07/23 00:59:37;;;;;;;49.10;33.28;;;;;;;22.85;48.60;93406.19;5039456;28;20060;-92
2023/07/23 01:02:03;;;;;;;49.25;33.05;;;;;;;22.86;48.40;93404.91;5012064;28;20103;-91
2023/07/23 01:04:28;;;;;;;50.67;33.85;;;;;;;22.86;48.39;93407.66;5031632;28;20254;-92
2023/07/23 01:06:53;;;;;;;50.40;34.38;;;;;;;22.84;48.42;93402.69;5030008;28;20033;-92
2023/07/23 01:09:19;;;;;;;53.30;33.88;;;;;;;22.84;48.51;93407.44;5031423;28;20433;-92
2023/07/23 01:11:44;;;;;;;46.60;31.25;;;;;;;22.85;48.25;93395.16;5034888;28;20410;-91
2023/07/23 01:14:10;;;;;;;47.55;32.38;;;;;;;22.84;48.56;93397.16;5034239;28;20033;-92
2023/07/23 01:16:36;;;;;;;48.10;32.65;;;;;;;22.84;48.66;93393.66;5035041;28;20125;-92
2023/07/23 01:19:02;;;;;;;45.40;31.65;;;;;;;22.83;48.42;93384.66;5040307;28;20039;-91
2023/07/23 01:21:28;;;;;;;44.83;30.42;;;;;;;22.84;48.31;93388.91;5024495;28;20094;-92
2023/07/23 01:23:53;;;;;;;43.63;31.58;;;;;;;22.84;48.49;93383.38;5048111;28;20029;-92
2023/07/23 01:26:21;;;;;;;46.08;31.38;;;;;;;22.83;48.48;93389.44;5048291;28;20246;-92
2023/07/23 01:28:46;;;;;;;46.70;32.05;;;;;;;22.83;48.47;93383.91;5037291;28;20044;-92
2023/07/23 01:31:15;;;;;;;51.28;32.97;;;;;;;22.83;48.42;93383.91;5045346;28;20075;-92
2023/07/23 01:33:40;;;;;;;49.20;31.77;;;;;;;22.83;48.33;93378.41;5041660;28;20080;-92
2023/07/23 01:36:07;;;;;;;47.35;32.03;;;;;;;22.81;48.33;93384.47;5030637;28;20487;-92
2023/07/23 01:38:32;;;;;;;46.47;30.50;;;;;;;22.83;48.48;93381.91;5010851;28;20055;-92
2023/07/23 01:40:58;;;;;;;45.25;30.35;;;;;;;22.81;48.45;93376.19;5035229;28;20129;-91
2023/07/23 01:43:23;;;;;;;44.15;31.02;;;;;;;22.81;48.50;93378.94;5051450;28;20039;-91
2023/07/23 01:45:50;;;;;;;43.92;31.10;;;;;;;22.81;48.33;93376.19;5050676;28;20086;-91
2023/07/23 01:48:15;;;;;;;39.75;27.27;;;;;;;22.84;48.38;93382.66;5066674;28;20041;-91
2023/07/23 01:50:41;;;;;;;40.33;29.15;;;;;;;22.81;48.57;93372.69;5044000;28;20044;-92
2023/07/23 01:53:07;;;;;;;47.00;28.38;;;;;;;22.80;48.40;93379.50;5048441;28;20044;-92
2023/07/23 01:55:33;;;;;;;44.50;28.48;;;;;;;22.79;48.31;93378.00;5067039;28;20049;-92
2023/07/23 01:57:59;;;;;;;40.03;29.73;;;;;;;22.80;48.47;93376.72;5035220;28;20045;-91
2023/07/23 02:00:24;;;;;;;41.10;28.42;;;;;;;22.80;48.51;93376.72;5038864;28;20514;-92
2023/07/23 02:02:49;;;;;;;40.00;27.60;;;;;;;22.80;48.38;93368.47;5047675;28;20044;-92
2023/07/23 02:05:21;;;;;;;42.55;29.60;;;;;;;22.79;48.44;93369.75;5039965;28;20044;-92
2023/07/23 02:07:46;;;;;;;37.40;27.10;;;;;;;22.80;48.47;93365.72;5062864;28;20470;-92
2023/07/23 02:10:12;;;;;;;39.83;27.08;;;;;;;22.78;48.40;93363.50;5040824;28;20044;-91
2023/07/23 02:12:37;;;;;;;40.60;27.40;;;;;;;22.79;48.54;93367.72;5062249;28;20526;-92
2023/07/23 02:15:03;;;;;;;40.03;26.80;;;;;;;22.77;48.58;93364.78;5050565;28;20399;-91
2023/07/23 02:17:29;;;;;;;40.58;28.25;;;;;;;22.77;48.51;93367.53;5067352;28;20522;-91
2023/07/23 02:19:54;;;;;;;41.53;26.85;;;;;;;22.77;48.29;93358.50;5051549;28;20052;-91
2023/07/23 02:22:20;;;;;;;40.05;27.08;;;;;;;22.79;48.63;93364.22;5045681;28;20553;-92
2023/07/23 02:24:45;;;;;;;37.22;26.15;;;;;;;22.79;48.64;93366.97;5031731;28;20049;-92
2023/07/23 02:27:11;;;;;;;40.53;27.40;;;;;;;22.77;48.17;93356.50;5062713;28;20033;-92
2023/07/23 02:29:37;;;;;;;40.35;27.05;;;;;;;22.76;48.47;93360.50;5037459;28;20061;-92
2023/07/23 02:32:03;;;;;;;39.00;26.38;;;;;;;22.80;48.53;93360.19;5044549;28;20489;-91
2023/07/23 02:34:28;;;;;;;37.88;25.27;;;;;;;22.78;48.59;93357.97;5050751;28;20060;-91
2023/07/23 02:36:54;;;;;;;38.70;25.00;;;;;;;22.79;48.53;93364.22;5020791;28;20091;-92
2023/07/23 02:39:19;;;;;;;34.60;24.70;;;;;;;22.78;48.44;93365.50;5045858;28;20427;-92
2023/07/23 02:41:45;;;;;;;38.47;25.23;;;;;;;22.78;48.53;93365.50;5023725;28;20064;-91
2023/07/23 02:44:12;;;;;;;39.85;24.80;;;;;;;22.76;48.85;93357.75;5010596;28;20496;-91
2023/07/23 02:46:37;;;;;;;38.17;25.83;;;;;;;22.75;48.42;93361.78;5040076;28;20045;-92
2023/07/23 02:49:04;;;;;;;38.42;25.60;;;;;;;22.76;48.52;93357.00;5017689;28;20509;-91
2023/07/23 02:51:30;;;;;;;38.55;25.60;;;;;;;22.77;48.26;93369.50;5033431;28;20082;-93
2023/07/23 02:53:55;;;;;;;38.95;24.38;;;;;;;22.76;48.40;93368.03;5035214;28;20041;-91
2023/07/23 02:56:21;;;;;;;37.88;25.35;;;;;;;22.77;48.44;93366.75;5034550;28;20253;-91
2023/07/23 02:58:46;;;;;;;31.13;23.08;;;;;;;22.76;48.43;93363.25;5026097;28;20423;-92
2023/07/23 03:01:12;;;;;;;35.17;24.77;;;;;;;22.77;48.73;93367.53;5032065;28;20040;-91
2023/07/23 03:03:37;;;;;;;37.92;24.27;;;;;;;22.77;48.38;93359.25;5044658;28;20041;-92
2023/07/23 03:06:06;;;;;;;36.25;24.20;;;;;;;22.74;48.56;93368.56;5034970;28;20048;-90
2023/07/23 03:08:31;;;;;;;35.58;24.35;;;;;;;22.74;48.71;93365.06;5034533;28;20037;-91
2023/07/23 03:10:57;;;;;;;32.25;21.95;;;;;;;22.76;48.57;93359.78;5028808;28;20059;-91
2023/07/23 03:13:23;;;;;;;31.80;23.98;;;;;;;22.77;48.50;93366.75;5042946;28;20507;-92
2023/07/23 03:15:49;;;;;;;33.45;23.95;;;;;;;22.76;48.54;93368.03;5043342;28;20094;-92
2023/07/23 03:18:15;;;;;;;31.70;22.42;;;;;;;22.74;48.59;93367.84;5046372;28;20044;-91
2023/07/23 03:20:40;;;;;;;37.20;24.27;;;;;;;22.75;48.37;93369.31;5026339;28;20033;-92
2023/07/23 03:23:06;;;;;;;33.25;22.42;;;;;;;22.74;48.38;93365.81;5047805;28;20090;-91
2023/07/23 03:25:31;;;;;;;35.50;23.42;;;;;;;22.74;48.43;93363.06;5035617;28;20040;-91
2023/07/23 03:27:59;;;;;;;35.03;21.65;;;;;;;22.76;48.68;93371.53;5030154;28;20045;-92
2023/07/23 03:30:26;;;;;;;31.70;22.90;;;;;;;22.76;48.30;93365.28;5033014;28;20036;-91
2023/07/23 03:32:53;;;;;;;32.42;22.40;;;;;;;22.74;48.59;93363.06;5049787;28;20041;-92
2023/07/23 03:35:19;;;;;;;33.08;22.02;;;;;;;22.74;48.52;93368.56;5049932;28;20037;-92
2023/07/23 03:37:45;;;;;;;32.35;21.50;;;;;;;22.74;48.67;93359.56;5031341;28;20076;-92
2023/07/23 03:40:13;;;;;;;31.50;22.40;;;;;;;22.73;48.21;93367.13;5045702;28;20546;-92
2023/07/23 03:42:38;;;;;;;30.60;21.27;;;;;;;22.73;48.32;93361.59;5009657;28;20119;-92
2023/07/23 03:45:04;;;;;;;33.40;22.63;;;;;;;22.74;48.33;93363.06;5049835;28;20045;-91
2023/07/23 03:47:29;;;;;;;29.80;20.70;;;;;;;22.74;48.43;93363.06;5041068;28;20040;-91
2023/07/23 03:49:55;;;;;;;35.25;21.55;;;;;;;22.74;48.44;93371.31;5046959;28;20048;-91
2023/07/23 03:52:21;;;;;;;30.88;20.88;;;;;;;22.75;48.58;93369.31;5048735;28;20041;-91
2023/07/23 03:54:47;;;;;;;30.20;21.35;;;;;;;22.76;48.38;93359.78;5040163;28;20049;-92
2023/07/23 03:57:12;;;;;;;29.73;20.10;;;;;;;22.77;48.48;93356.50;5063580;28;20099;-91
2023/07/23 03:59:42;;;;;;;32.85;21.45;;;;;;;22.76;48.45;93371.53;5034122;28;20044;-92
2023/07/23 04:02:08;;;;;;;31.20;22.27;;;;;;;22.75;48.61;93370.06;5013937;28;20176;-92
2023/07/23 04:04:35;;;;;;;34.42;21.70;;;;;;;22.76;48.71;93366.00;5026479;28;20395;-92
2023/07/23 04:07:00;;;;;;;30.73;20.70;;;;;;;22.75;48.46;93363.81;5017705;28;20037;-91
2023/07/23 04:09:28;;;;;;;28.70;19.90;;;;;;;22.82;48.24;93369.41;5049541;28;20124;-91
2023/07/23 04:11:53;;;;;;;30.45;19.15;;;;;;;22.85;48.37;93365.56;5065459;28;20504;-92
2023/07/23 04:14:19;;;;;;;29.80;20.73;;;;;;;22.89;48.22;93373.50;5049928;28;20044;-91
2023/07/23 04:16:44;;;;;;;28.38;19.85;;;;;;;22.91;48.21;93376.47;5035905;28;20045;-93
2023/07/23 04:19:10;;;;;;;25.92;19.20;;;;;;;22.92;48.27;93377.94;5035946;28;20036;-91
2023/07/23 04:21:35;;;;;;;31.38;20.40;;;;;;;22.87;48.27;93371.28;5021218;28;20052;-92
2023/07/23 04:24:01;;;;;;;26.20;18.05;;;;;;;22.89;48.35;93374.25;5018403;28;20047;-92
2023/07/23 04:26:27;;;;;;;27.48;19.08;;;;;;;22.86;48.14;93367.03;5052280;28;20048;-92
2023/07/23 04:28:52;;;;;;;29.52;19.65;;;;;;;22.84;48.19;93361.34;5044875;28;20184;-91
2023/07/23 04:31:18;;;;;;;26.55;18.00;;;;;;;22.88;48.28;93367.25;5035567;28;20484;-93
2023/07/23 04:33:43;;;;;;;26.98;19.38;;;;;;;22.89;48.20;93373.50;5032638;28;20551;-91
2023/07/23 04:36:09;;;;;;;25.80;17.08;;;;;;;22.93;48.12;93375.91;5015492;28;20099;-92
2023/07/23 04:38:35;;;;;;;23.02;16.90;;;;;;;22.93;48.06;93373.91;5014833;28;20384;-92
2023/07/23 04:41:00;;;;;;;25.08;16.42;;;;;;;22.95;47.93;93371.31;5037968;28;20033;-91
2023/07/23 04:43:26;;;;;;;25.15;18.30;;;;;;;22.96;48.13;93378.31;5020346;28;20124;-91
2023/07/23 04:45:51;;;;;;;28.63;18.60;;;;;;;22.93;48.12;93381.44;5058355;28;20051;-92
2023/07/23 04:48:17;;;;;;;23.33;17.00;;;;;;;22.94;48.06;93372.63;5041425;28;20044;-93
2023/07/23 04:50:43;;;;;;;21.67;15.88;;;;;;;22.98;48.21;93369.50;5064205;28;20323;-92
2023/07/23 04:53:08;;;;;;;21.95;15.93;;;;;;;22.97;48.36;93373.53;5045168;28;20093;-91
2023/07/23 04:55:34;;;;;;;24.27;17.23;;;;;;;22.95;48.23;93376.81;5015654;28;20041;-91
2023/07/23 04:58:00;;;;;;;18.48;14.95;;;;;;;22.96;47.96;93383.81;5032014;28;20045;-92
2023/07/23 05:00:26;;;;;;;23.17;14.82;;;;;;;23.00;48.09;93381.47;5030873;28;20128;-91
2023/07/23 05:02:52;;;;;;;23.50;16.45;;;;;;;23.03;47.94;93374.88;5040384;28;20523;-92
2023/07/23 05:05:18;;;;;;;21.27;16.10;;;;;;;23.03;48.00;93374.13;5057107;28;20044;-92
2023/07/23 05:07:44;;;;;;;23.67;16.13;;;;;;;22.99;48.02;93382.75;5023245;28;20056;-91
2023/07/23 05:10:10;;;;;;;21.77;16.02;;;;;;;23.01;47.63;93388.44;5038378;28;20026;-92
2023/07/23 05:12:35;;;;;;;21.08;15.13;;;;;;;23.03;47.80;93385.91;5044473;28;20665;-92
2023/07/23 05:15:11;;;;;;;22.42;15.73;;;;;;;23.01;47.71;93371.91;5026898;28;20067;-92
2023/07/23 05:17:38;;;;;;;21.58;15.75;;;;;;;23.00;47.77;93372.44;5063218;28;20036;-92
2023/07/23 05:20:06;;;;;;;18.67;14.70;;;;;;;23.04;47.92;93381.13;5068348;28;20065;-91
2023/07/23 05:22:32;;;;;;;20.30;14.50;;;;;;;23.03;47.88;93383.13;5048704;28;20455;-91
2023/07/23 05:24:57;;;;;;;22.55;15.00;;;;;;;23.04;47.65;93384.63;5047638;28;20052;-92
2023/07/23 05:27:23;;;;;;;18.10;14.45;;;;;;;23.04;47.90;93379.09;5039689;28;20059;-92
2023/07/23 05:29:48;;;;;;;21.45;15.38;;;;;;;23.04;47.80;93379.09;5029292;28;20052;-92
2023/07/23 05:32:14;;;;;;;20.55;15.65;;;;;;;23.08;47.62;93384.28;5019833;28;20034;-92
2023/07/23 05:34:39;;;;;;;19.85;14.55;;;;;;;23.07;47.69;93383.53;5048795;28;20432;-91
2023/07/23 05:37:05;;;;;;;22.70;14.93;;;;;;;23.08;47.86;93381.53;5055051;28;20048;-92
2023/07/23 05:39:30;;;;;;;19.20;14.13;;;;;;;23.09;47.66;93385.75;5037019;28;20038;-92
2023/07/23 05:41:55;;;;;;;20.83;14.95;;;;;;;23.11;47.72;93372.91;5045957;28;20103;-92
2023/07/23 05:44:21;;;;;;;19.45;13.80;;;;;;;23.12;47.71;93373.63;5006590;28;20033;-92
2023/07/23 05:46:46;;;;;;;20.95;14.50;;;;;;;23.13;47.57;93380.63;5014599;28;20179;-93
2023/07/23 05:49:12;;;;;;;19.95;13.85;;;;;;;23.13;47.60;93378.63;5043404;28;20041;-92
2023/07/23 05:51:37;;;;;;;18.33;13.57;;;;;;;23.14;47.86;93373.84;5024789;28;20504;-92
2023/07/23 05:54:03;;;;;;;17.10;13.40;;;;;;;23.15;47.64;93381.56;5030678;28;20052;-90
2023/07/23 05:56:29;;;;;;;19.23;14.50;;;;;;;23.17;47.57;93381.75;5027040;28;20040;-92
2023/07/23 05:58:55;;;;;;;19.77;14.10;;;;;;;23.17;47.51;93384.50;5035885;28;20064;-91
2023/07/23 06:01:23;;;;;;;20.15;14.40;;;;;;;23.18;47.66;93388.75;4998390;28;20459;-92
2023/07/23 06:03:49;;;;;;;18.50;13.05;;;;;;;23.22;47.47;93393.91;5035578;28;20381;-91
2023/07/23 06:06:14;;;;;;;18.55;13.50;;;;;;;23.23;47.41;93390.59;5015043;28;20057;-92
2023/07/23 06:08:40;;;;;;;18.33;12.98;;;;;;;23.24;47.35;93394.09;5032399;28;20045;-91
2023/07/23 06:11:05;;;;;;;17.83;12.70;;;;;;;23.25;47.44;93390.81;5043137;28;20029;-92
2023/07/23 06:13:30;;;;;;;17.60;12.98;;;;;;;23.24;47.50;93383.81;5035270;28;20035;-91
2023/07/23 06:15:56;;;;;;;17.48;12.73;;;;;;;23.28;47.45;93388.25;5036440;28;20044;-92
2023/07/23 06:18:22;;;;;;;17.05;13.65;;;;;;;23.30;47.56;93393.97;5026846;28;20033;-91
2023/07/23 06:20:47;;;;;;;19.65;12.98;;;;;;;23.24;47.44;93389.31;5035038;28;20950;-92
2023/07/23 06:23:12;;;;;;;15.65;11.20;;;;;;;23.27;47.70;93393.03;5034728;28;20033;-92
2023/07/23 06:25:39;;;;;;;17.38;12.57;;;;;;;23.29;47.43;93393.22;5036162;28;20053;-92
2023/07/23 06:28:04;;;;;;;16.10;11.38;;;;;;;23.31;47.41;93398.19;5017355;28;20128;-92
2023/07/23 06:30:30;;;;;;;16.13;12.15;;;;;;;23.34;47.53;93399.88;5026036;28;20112;-92
2023/07/23 06:32:55;;;;;;;17.08;12.48;;;;;;;23.34;47.55;93394.34;5060549;28;20049;-92
2023/07/23 06:35:22;;;;;;;18.30;12.73;;;;;;;23.35;47.40;93395.84;5012941;28;20068;-92
2023/07/23 06:37:47;;;;;;;19.38;13.30;;;;;;;23.37;47.52;93393.28;5041500;28;20056;-92
2023/07/23 06:40:13;;;;;;;15.25;10.77;;;;;;;23.39;47.24;93396.19;5042613;28;20124;-92
2023/07/23 06:42:38;;;;;;;14.43;11.15;;;;;;;23.39;47.24;93388.66;5012563;28;20284;-92
2023/07/23 06:45:04;;;;;;;17.27;11.13;;;;;;;23.41;47.17;93394.38;5049859;28;20060;-91
2023/07/23 06:47:29;;;;;;;15.63;11.73;;;;;;;23.43;47.06;93394.56;5016796;28;20503;-92
2023/07/23 06:49:55;;;;;;;16.13;12.07;;;;;;;23.44;47.14;93393.28;5032336;28;20512;-91
2023/07/23 06:52:20;;;;;;;16.73;12.20;;;;;;;23.44;47.12;93393.28;5064795;28;20404;-91
2023/07/23 06:54:46;;;;;;;16.35;11.45;;;;;;;23.49;46.90;93391.66;5027151;28;20550;-92
2023/07/23 06:57:12;;;;;;;16.55;11.30;;;;;;;23.49;47.07;93394.44;5029699;28;20473;-92
2023/07/23 06:59:37;;;;;;;14.68;10.90;;;;;;;23.51;46.94;93400.13;5032044;28;20044;-92
2023/07/23 07:02:03;;;;;;;16.40;11.35;;;;;;;23.51;46.94;93389.09;5046818;28;20052;-91
2023/07/23 07:04:28;;;;;;;18.17;12.23;;;;;;;23.51;47.11;93391.84;5028295;28;20041;-91
2023/07/23 07:06:56;;;;;;;16.30;11.35;;;;;;;23.50;47.09;93391.13;5048865;28;20041;-92
2023/07/23 07:09:22;;;;;;;15.48;11.63;;;;;;;23.51;47.02;93400.13;5034454;28;20049;-92
2023/07/23 07:11:49;;;;;;;15.85;11.63;;;;;;;23.52;46.88;93387.84;5032688;28;20464;-92
2023/07/23 07:14:15;;;;;;;16.48;11.40;;;;;;;23.50;47.04;93393.88;5055860;28;20044;-92
2023/07/23 07:16:40;;;;;;;13.85;11.18;;;;;;;23.51;46.96;93395.34;5058874;28;20044;-91
2023/07/23 07:19:06;;;;;;;15.05;11.07;;;;;;;23.51;46.95;93394.63;5047266;28;20075;-92
2023/07/23 07:21:32;;;;;;;16.90;11.20;;;;;;;23.55;47.04;93390.25;5042080;28;20048;-92
2023/07/23 07:23:57;;;;;;;16.23;11.43;;;;;;;23.56;47.01;93394.50;5012803;28;20539;-92
2023/07/23 07:26:23;;;;;;;17.20;10.77;;;;;;;23.57;46.96;93395.22;5066797;28;20037;-92
2023/07/23 07:28:50;;;;;;;15.98;11.25;;;;;;;23.57;46.71;93393.22;5011042;28;20042;-92
2023/07/23 07:31:17;;;;;;;16.33;10.70;;;;;;;23.58;46.98;93397.44;5018494;28;20037;-92
2023/07/23 07:33:46;;;;;;;15.70;11.07;;;;;;;23.59;46.67;93395.44;5032861;28;20050;-91
2023/07/23 07:36:13;;;;;;;15.10;11.48;;;;;;;23.59;46.79;93387.16;5019933;28;20048;-92
2023/07/23 07:38:38;;;;;;;16.98;11.02;;;;;;;23.58;46.96;93396.72;5043621;28;20045;-92
2023/07/23 07:41:04;;;;;;;74.65;15.63;;;;;;;23.58;47.38;93388.44;5045989;28;20071;-91
2023/07/23 07:43:29;;;;;;;78.75;14.30;;;;;;;23.60;47.06;93393.41;5045858;28;20040;-92
2023/07/23 07:45:59;;;;;;;46.30;15.30;;;;;;;23.57;47.08;93392.47;5034204;28;20065;-93
2023/07/23 07:48:26;;;;;;;20.55;11.15;;;;;;;23.56;47.04;93393.75;5046600;28;20455;-92
2023/07/23 07:51:01;;;;;;;18.92;10.75;;;;;;;23.56;46.99;93402.03;5017176;28;20037;-92
2023/07/23 07:53:26;;;;;;;13.30;10.00;;;;;;;23.56;47.09;93399.28;5014417;28;20064;-92
2023/07/23 07:55:52;;;;;;;13.27;9.57;;;;;;;23.57;46.86;93400.75;5047939;28;20159;-92
2023/07/23 07:58:24;;;;;;;14.38;9.48;;;;;;;23.57;47.05;93403.50;4997380;28;20044;-91
2023/07/23 08:00:54;;;;;;;19.52;9.50;;;;;;;23.57;47.01;93395.97;5015829;28;20183;-92
2023/07/23 08:03:21;;;;;;;16.27;10.45;;;;;;;23.57;46.90;93398.72;5014920;28;20114;-92
2023/07/23 08:05:47;;;;;;;17.55;10.15;;;;;;;23.59;46.87;93395.44;4998318;28;20293;-92
2023/07/23 08:08:13;;;;;;;19.45;9.63;;;;;;;23.57;47.20;93398.00;5030964;28;20033;-92
2023/07/23 08:10:39;;;;;;;18.38;9.85;;;;;;;23.60;47.12;93396.88;5014848;28;20045;-91
2023/07/23 08:13:04;;;;;;;22.17;10.32;;;;;;;23.57;46.97;93395.22;4997996;28;20075;-92
2023/07/23 08:15:31;;;;;;;20.05;9.95;;;;;;;23.60;47.14;93396.16;4997878;28;20052;-92
2023/07/23 08:17:57;;;;;;;17.75;10.00;;;;;;;23.57;47.16;93384.94;5015367;28;20044;-92
2023/07/23 08:20:22;;;;;;;16.50;10.57;;;;;;;23.57;47.04;93398.72;5013100;28;20469;-92
2023/07/23 08:22:48;;;;;;;15.23;9.15;;;;;;;23.61;47.14;93386.56;4998622;28;20045;-93
2023/07/23 08:25:14;;;;;;;11.52;8.35;;;;;;;23.59;46.97;93384.41;5047195;28;20164;-92
2023/07/23 08:27:39;;;;;;;13.38;9.60;;;;;;;23.61;46.93;93381.06;5016924;28;20169;-93
2023/07/23 08:30:06;;;;;;;14.63;9.57;;;;;;;23.61;47.07;93392.09;4998450;28;20041;-92
2023/07/23 08:32:31;;;;;;;13.73;9.20;;;;;;;23.62;47.20;93388.78;5046481;28;20065;-92
2023/07/23 08:34:57;;;;;;;14.00;8.73;;;;;;;23.61;47.23;93381.81;5048825;28;20789;-93
2023/07/23 08:37:23;;;;;;;13.80;8.48;;;;;;;23.62;47.11;93386.03;5030932;28;20052;-92
2023/07/23 08:39:48;;;;;;;10.98;8.38;;;;;;;23.60;47.12;93385.84;5011960;28;20491;-92
2023/07/23 08:42:47;;;;;;;15.32;9.63;;;;;;;23.59;47.16;93378.88;5046713;28;20045;-93
2023/07/23 08:45:37;;;;;;;12.73;8.27;;;;;;;23.60;47.02;93383.09;5046021;28;20538;-92
2023/07/23 08:48:16;;;;;;;12.88;8.70;;;;;;;23.61;47.11;93383.81;5049507;28;20623;-91
2023/07/23 08:50:50;;;;;;;14.45;8.75;;;;;;;23.59;46.92;93376.13;5025679;28;20049;-92
2023/07/23 08:53:16;;;;;;;12.85;8.70;;;;;;;23.60;47.15;93380.31;5014762;28;20040;-91
2023/07/23 08:55:44;;;;;;;15.32;8.23;;;;;;;23.58;47.29;93382.91;5045429;28;20038;-92
2023/07/23 08:58:14;;;;;;;11.90;8.77;;;;;;;23.60;47.22;93382.38;5022744;28;20511;-92
2023/07/23 09:00:42;;;;;;;11.85;8.75;;;;;;;23.61;47.07;93386.56;5026074;28;20092;-92
2023/07/23 09:03:08;;;;;;;15.15;9.20;;;;;;;23.62;47.11;93382.53;5033409;28;20045;-92
2023/07/23 09:05:33;;;;;;;14.98;8.55;;;;;;;23.60;47.43;93374.81;5051681;28;20040;-92
2023/07/23 09:07:59;;;;;;;14.43;8.43;;;;;;;23.61;47.32;93375.53;5018633;28;20399;-92
2023/07/23 09:10:24;;;;;;;13.15;9.18;;;;;;;23.61;47.24;93372.78;5051998;28;20695;-91
2023/07/23 09:12:50;;;;;;;13.73;8.30;;;;;;;23.62;47.23;93372.25;5035900;28;20048;-92
2023/07/23 09:15:15;;;;;;;11.27;8.35;;;;;;;23.63;46.89;93376.47;5068252;28;20036;-91
2023/07/23 09:17:41;;;;;;;15.05;8.18;;;;;;;23.64;47.38;93379.97;5037775;28;20556;-92
2023/07/23 09:20:12;;;;;;;12.35;8.23;;;;;;;23.62;47.18;93372.25;5061871;28;20059;-92
2023/07/23 09:22:37;;;;;;;14.73;8.35;;;;;;;23.62;47.13;93371.50;5040951;28;20037;-92
2023/07/23 09:25:03;;;;;;;13.50;8.18;;;;;;;23.61;47.27;93378.31;5011576;28;20048;-90
2023/07/23 09:27:38;;;;;;;15.25;8.32;;;;;;;23.60;47.32;93380.31;5011310;28;20037;-91
2023/07/23 09:30:05;;;;;;;10.45;8.10;;;;;;;23.59;47.18;93373.34;5039297;28;20033;-91
2023/07/23 09:32:31;;;;;;;12.77;7.07;;;;;;;23.60;47.39;93385.84;5011761;28;20137;-92
2023/07/23 09:34:57;;;;;;;12.60;7.05;;;;;;;23.60;47.36;93385.84;5019657;28;20443;-92
2023/07/23 09:37:23;;;;;;;9.65;7.47;;;;;;;23.58;47.08;93378.13;5042201;28;20071;-93
2023/07/23 09:39:48;;;;;;;11.98;7.65;;;;;;;23.58;47.44;93383.66;5026770;28;20053;-92
2023/07/23 09:42:14;;;;;;;10.73;7.63;;;;;;;23.56;47.46;93375.19;5032504;28;20400;-93
2023/07/23 09:44:39;;;;;;;20.55;7.68;;;;;;;23.58;47.56;93377.41;5039143;28;20044;-92
2023/07/23 09:47:05;;;;;;;14.38;7.45;;;;;;;23.60;47.38;93383.09;5040261;28;20052;-92
2023/07/23 09:49:30;;;;;;;9.80;7.32;;;;;;;23.60;47.45;93376.84;5059150;28;20410;-92
2023/07/23 09:51:57;;;;;;;11.48;8.23;;;;;;;23.61;47.22;93378.31;5044606;28;20072;-92
2023/07/23 09:54:23;;;;;;;12.13;7.60;;;;;;;23.57;47.32;93373.91;5041097;28;20071;-93
2023/07/23 09:56:52;;;;;;;14.35;7.85;;;;;;;23.59;47.50;93373.34;5039109;28;20049;-93
2023/07/23 09:59:17;;;;;;;11.18;7.55;;;;;;;23.58;47.37;93372.63;5039182;28;20045;-92
2023/07/23 10:01:44;;;;;;;11.48;6.80;;;;;;;23.58;47.47;93371.88;5002880;28;20505;-92
2023/07/23 10:04:10;;;;;;;10.55;6.85;;;;;;;23.61;47.29;93370.75;5014830;28;20048;-92
2023/07/23 10:06:35;;;;;;;13.30;7.55;;;;;;;23.57;47.50;93368.38;5054020;28;20033;-92
2023/07/23 10:09:02;;;;;;;12.43;7.03;;;;;;;23.58;47.50;93377.41;5052149;28;20052;-92
2023/07/23 10:11:27;;;;;;;12.23;7.65;;;;;;;23.60;47.27;93372.03;5032316;28;20077;-92
2023/07/23 10:13:53;;;;;;;10.13;7.00;;;;;;;23.58;47.45;93366.34;5040360;28;20526;-92
2023/07/23 10:16:23;;;;;;;13.23;7.65;;;;;;;23.60;47.34;93371.34;5019096;28;20048;-92
2023/07/23 10:18:49;;;;;;;13.57;7.22;;;;;;;23.61;47.39;93370.03;5031969;28;20602;-92
2023/07/23 10:21:16;;;;;;;11.38;7.28;;;;;;;23.58;47.43;93356.06;5041558;28;20075;-92
2023/07/23 10:23:41;;;;;;;8.73;6.13;;;;;;;23.58;47.47;93347.03;5039004;28;20036;-91
2023/07/23 10:26:23;;;;;;;13.13;7.55;;;;;;;23.58;47.51;93353.31;5017609;28;20037;-92
2023/07/23 10:28:50;;;;;;;9.30;7.15;;;;;;;23.60;47.71;93352.00;5048176;28;20048;-93
2023/07/23 10:31:26;;;;;;;7.93;6.00;;;;;;;23.60;47.52;93349.25;5048365;28;20036;-93
2023/07/23 10:33:51;;;;;;;10.15;7.15;;;;;;;23.61;47.54;93345.19;5046698;28;20030;-92
2023/07/23 10:36:18;;;;;;;13.63;6.97;;;;;;;23.59;47.40;93348.53;5014639;28;20037;-92
2023/07/23 10:38:43;;;;;;;12.75;7.63;;;;;;;23.62;47.60;93341.13;5058597;28;20041;-92
2023/07/23 10:41:09;;;;;;;15.98;7.22;;;;;;;23.59;47.56;93340.25;5041395;28;20041;-91
2023/07/23 10:43:38;;;;;;;10.15;6.75;;;;;;;23.60;47.50;93347.22;5018330;28;20855;-92
2023/07/23 10:46:11;;;;;;;10.25;6.38;;;;;;;23.61;47.59;93345.19;5063023;28;20040;-92
2023/07/23 10:48:55;;;;;;;12.80;6.80;;;;;;;23.61;47.31;93334.88;5027262;28;20047;-92
2023/07/23 10:51:23;;;;;;;8.52;6.57;;;;;;;23.63;47.43;93348.88;5018574;28;20048;-92
2023/07/23 10:53:55;;;;;;;12.45;7.15;;;;;;;23.61;47.60;93334.88;5018483;28;20041;-92
2023/07/23 10:56:22;;;;;;;10.82;6.28;;;;;;;23.62;47.37;93347.41;5050330;28;20068;-92
2023/07/23 10:58:48;;;;;;;11.85;6.72;;;;;;;23.62;47.57;93341.13;5034611;28;20456;-92
2023/07/23 11:01:14;;;;;;;10.13;7.47;;;;;;;23.61;47.32;93339.66;5018023;28;20502;-92
2023/07/23 11:03:42;;;;;;;11.43;6.05;;;;;;;23.61;47.34;93336.91;5034886;28;20051;-92
2023/07/23 11:06:27;;;;;;;13.57;6.72;;;;;;;23.62;47.50;93330.09;5049374;28;20040;-92
2023/07/23 11:08:55;;;;;;;9.48;5.63;;;;;;;23.64;47.26;93328.28;5050017;28;20123;-92
2023/07/23 11:11:27;;;;;;;9.00;6.57;;;;;;;23.62;47.39;93328.09;5021109;28;20082;-92
2023/07/23 11:13:52;;;;;;;9.93;5.90;;;;;;;23.61;47.56;93325.88;5053389;28;20040;-91
2023/07/23 11:16:18;;;;;;;9.50;6.47;;;;;;;23.62;47.06;93321.81;5042241;28;20037;-92